sensor_id;sensor_type;location;lat;lon;timestamp;P1;durP1;ratioP1;P2;durP2;ratioP2
14381;SDS011;7275;50.328;8.720;2023-02-13T00:00:49;6.57;;;5.77;;
14381;SDS011;7275;50.328;8.720;2023-02-13T00:03:16;6.73;;;5.93;;
14381;SDS011;7275;50.328;8.720;2023-02-13T00:05:44;6.60;;;5.97;;
14381;SDS011;7275;50.328;8.720;2023-02-13T00:08:11;7.03;;;6.10;;
14381;SDS011;7275;50.328;8.720;2023-02-13T00:10:39;7.03;;;6.33;;
14381;SDS011;7275;50.328;8.720;2023-02-13T00:13:06;7.07;;;6.37;;
14381;SDS011;7275;50.328;8.720;2023-02-13T00:15:35;7.27;;;6.27;;
14381;SDS011;7275;50.328;8.720;2023-02-13T00:18:03;7.10;;;6.40;;
14381;SDS011;7275;50.328;8.720;2023-02-13T00:20:31;7.10;;;6.40;;
14381;SDS011;7275;50.328;8.720;2023-02-13T00:22:59;7.30;;;6.33;;
14381;SDS011;7275;50.328;8.720;2023-02-13T00:25:26;6.30;;;5.70;;
14381;SDS011;7275;50.328;8.720;2023-02-13T00:27:54;6.43;;;5.83;;
14381;SDS011;7275;50.328;8.720;2023-02-13T00:30:22;7.03;;;6.33;;
14381;SDS011;7275;50.328;8.720;2023-02-13T00:32:51;6.93;;;6.23;;
14381;SDS011;7275;50.328;8.720;2023-02-13T00:35:18;7.43;;;6.43;;
14381;SDS011;7275;50.328;8.720;2023-02-13T00:37:46;7.23;;;6.53;;
14381;SDS011;7275;50.328;8.720;2023-02-13T00:40:13;6.97;;;6.27;;
14381;SDS011;7275;50.328;8.720;2023-02-13T00:42:41;6.73;;;6.07;;
14381;SDS011;7275;50.328;8.720;2023-02-13T00:45:09;6.47;;;5.80;;
14381;SDS011;7275;50.328;8.720;2023-02-13T00:47:36;6.57;;;5.93;;
14381;SDS011;7275;50.328;8.720;2023-02-13T00:50:06;6.67;;;5.97;;
14381;SDS011;7275;50.328;8.720;2023-02-13T00:52:33;6.50;;;5.80;;
14381;SDS011;7275;50.328;8.720;2023-02-13T00:55:01;6.30;;;5.70;;
14381;SDS011;7275;50.328;8.720;2023-02-13T00:57:29;7.33;;;6.13;;
14381;SDS011;7275;50.328;8.720;2023-02-13T00:59:57;6.87;;;6.17;;
14381;SDS011;7275;50.328;8.720;2023-02-13T01:02:25;6.10;;;5.50;;
14381;SDS011;7275;50.328;8.720;2023-02-13T01:04:52;6.77;;;6.07;;
14381;SDS011;7275;50.328;8.720;2023-02-13T01:07:21;6.60;;;6.00;;
14381;SDS011;7275;50.328;8.720;2023-02-13T01:09:49;7.20;;;6.03;;
14381;SDS011;7275;50.328;8.720;2023-02-13T01:12:16;6.60;;;5.93;;
14381;SDS011;7275;50.328;8.720;2023-02-13T01:14:44;6.83;;;6.20;;
14381;SDS011;7275;50.328;8.720;2023-02-13T01:17:11;7.10;;;6.40;;
14381;SDS011;7275;50.328;8.720;2023-02-13T01:19:39;6.60;;;6.00;;
14381;SDS011;7275;50.328;8.720;2023-02-13T01:22:07;7.50;;;6.73;;
14381;SDS011;7275;50.328;8.720;2023-02-13T01:24:36;6.97;;;6.20;;
14381;SDS011;7275;50.328;8.720;2023-02-13T01:27:04;6.70;;;6.00;;
14381;SDS011;7275;50.328;8.720;2023-02-13T01:29:32;6.37;;;5.77;;
14381;SDS011;7275;50.328;8.720;2023-02-13T01:31:59;7.30;;;6.37;;
14381;SDS011;7275;50.328;8.720;2023-02-13T01:34:28;7.37;;;6.67;;
14381;SDS011;7275;50.328;8.720;2023-02-13T01:36:56;6.37;;;5.77;;
14381;SDS011;7275;50.328;8.720;2023-02-13T01:39:24;6.30;;;5.70;;
14381;SDS011;7275;50.328;8.720;2023-02-13T01:41:53;6.83;;;6.13;;
14381;SDS011;7275;50.328;8.720;2023-02-13T01:47:14;6.23;;;5.63;;
14381;SDS011;7275;50.328;8.720;2023-02-13T01:49:44;7.10;;;6.07;;
14381;SDS011;7275;50.328;8.720;2023-02-13T01:52:13;6.07;;;5.47;;
14381;SDS011;7275;50.328;8.720;2023-02-13T01:54:43;6.27;;;5.67;;
14381;SDS011;7275;50.328;8.720;2023-02-13T01:57:13;6.73;;;6.03;;
14381;SDS011;7275;50.328;8.720;2023-02-13T01:59:47;6.90;;;6.13;;
14381;SDS011;7275;50.328;8.720;2023-02-13T02:02:16;6.73;;;6.00;;
14381;SDS011;7275;50.328;8.720;2023-02-13T02:04:45;6.63;;;5.93;;
14381;SDS011;7275;50.328;8.720;2023-02-13T02:07:16;6.90;;;6.20;;
14381;SDS011;7275;50.328;8.720;2023-02-13T02:09:47;6.77;;;6.07;;
14381;SDS011;7275;50.328;8.720;2023-02-13T02:12:19;6.87;;;6.17;;
14381;SDS011;7275;50.328;8.720;2023-02-13T02:14:51;6.60;;;5.90;;
14381;SDS011;7275;50.328;8.720;2023-02-13T02:17:20;6.53;;;5.90;;
14381;SDS011;7275;50.328;8.720;2023-02-13T02:19:52;6.63;;;5.93;;
14381;SDS011;7275;50.328;8.720;2023-02-13T02:26:04;6.77;;;5.97;;
14381;SDS011;7275;50.328;8.720;2023-02-13T02:29:00;5.83;;;5.23;;
14381;SDS011;7275;50.328;8.720;2023-02-13T02:31:54;6.57;;;5.63;;
14381;SDS011;7275;50.328;8.720;2023-02-13T02:34:36;6.13;;;5.20;;
14381;SDS011;7275;50.328;8.720;2023-02-13T02:37:15;7.27;;;5.60;;
14381;SDS011;7275;50.328;8.720;2023-02-13T02:40:00;6.53;;;5.83;;
14381;SDS011;7275;50.328;8.720;2023-02-13T02:42:38;6.53;;;5.83;;
14381;SDS011;7275;50.328;8.720;2023-02-13T02:45:17;7.00;;;6.30;;
14381;SDS011;7275;50.328;8.720;2023-02-13T02:47:54;6.30;;;5.70;;
14381;SDS011;7275;50.328;8.720;2023-02-13T02:50:47;6.97;;;6.00;;
14381;SDS011;7275;50.328;8.720;2023-02-13T02:53:22;6.43;;;5.73;;
14381;SDS011;7275;50.328;8.720;2023-02-13T02:55:59;5.93;;;5.33;;
14381;SDS011;7275;50.328;8.720;2023-02-13T02:58:35;6.03;;;5.43;;
14381;SDS011;7275;50.328;8.720;2023-02-13T03:01:24;6.10;;;5.50;;
14381;SDS011;7275;50.328;8.720;2023-02-13T03:04:15;6.13;;;5.50;;
14381;SDS011;7275;50.328;8.720;2023-02-13T03:07:05;6.33;;;5.53;;
14381;SDS011;7275;50.328;8.720;2023-02-13T03:09:35;6.27;;;5.33;;
14381;SDS011;7275;50.328;8.720;2023-02-13T03:12:25;6.33;;;5.47;;
14381;SDS011;7275;50.328;8.720;2023-02-13T03:15:14;5.93;;;5.33;;
14381;SDS011;7275;50.328;8.720;2023-02-13T03:17:42;5.90;;;5.30;;
14381;SDS011;7275;50.328;8.720;2023-02-13T03:20:32;6.73;;;5.47;;
14381;SDS011;7275;50.328;8.720;2023-02-13T03:23:28;6.07;;;5.37;;
14381;SDS011;7275;50.328;8.720;2023-02-13T03:29:20;7.27;;;6.03;;
14381;SDS011;7275;50.328;8.720;2023-02-13T03:32:19;6.53;;;5.73;;
14381;SDS011;7275;50.328;8.720;2023-02-13T03:34:55;6.03;;;5.43;;
14381;SDS011;7275;50.328;8.720;2023-02-13T03:37:49;6.20;;;5.50;;
14381;SDS011;7275;50.328;8.720;2023-02-13T03:40:26;6.47;;;5.63;;
14381;SDS011;7275;50.328;8.720;2023-02-13T03:42:59;7.00;;;5.80;;
14381;SDS011;7275;50.328;8.720;2023-02-13T03:45:35;6.20;;;5.60;;
14381;SDS011;7275;50.328;8.720;2023-02-13T03:48:21;6.20;;;5.57;;
14381;SDS011;7275;50.328;8.720;2023-02-13T03:51:11;6.50;;;5.77;;
14381;SDS011;7275;50.328;8.720;2023-02-13T03:53:45;8.27;;;5.90;;
14381;SDS011;7275;50.328;8.720;2023-02-13T03:56:17;6.43;;;5.67;;
14381;SDS011;7275;50.328;8.720;2023-02-13T03:59:05;6.67;;;5.83;;
14381;SDS011;7275;50.328;8.720;2023-02-13T04:01:45;6.40;;;5.43;;
14381;SDS011;7275;50.328;8.720;2023-02-13T04:04:25;6.20;;;5.60;;
14381;SDS011;7275;50.328;8.720;2023-02-13T04:06:59;6.10;;;5.47;;
14381;SDS011;7275;50.328;8.720;2023-02-13T04:09:30;6.60;;;5.70;;
14381;SDS011;7275;50.328;8.720;2023-02-13T04:12:01;6.57;;;5.47;;
14381;SDS011;7275;50.328;8.720;2023-02-13T04:14:37;6.57;;;5.50;;
14381;SDS011;7275;50.328;8.720;2023-02-13T04:17:07;6.77;;;5.77;;
14381;SDS011;7275;50.328;8.720;2023-02-13T04:19:40;6.50;;;5.27;;
14381;SDS011;7275;50.328;8.720;2023-02-13T04:22:10;7.33;;;6.00;;
14381;SDS011;7275;50.328;8.720;2023-02-13T04:24:39;7.47;;;5.80;;
14381;SDS011;7275;50.328;8.720;2023-02-13T04:27:08;7.10;;;5.53;;
14381;SDS011;7275;50.328;8.720;2023-02-13T04:29:39;7.53;;;6.00;;
14381;SDS011;7275;50.328;8.720;2023-02-13T04:32:08;6.90;;;6.20;;
14381;SDS011;7275;50.328;8.720;2023-02-13T04:34:36;7.50;;;5.93;;
14381;SDS011;7275;50.328;8.720;2023-02-13T04:37:04;7.57;;;6.33;;
14381;SDS011;7275;50.328;8.720;2023-02-13T04:39:32;7.40;;;5.87;;
14381;SDS011;7275;50.328;8.720;2023-02-13T04:42:00;8.90;;;6.57;;
14381;SDS011;7275;50.328;8.720;2023-02-13T04:44:28;8.83;;;6.03;;
14381;SDS011;7275;50.328;8.720;2023-02-13T04:46:56;8.00;;;6.37;;
14381;SDS011;7275;50.328;8.720;2023-02-13T04:49:23;7.83;;;6.13;;
14381;SDS011;7275;50.328;8.720;2023-02-13T04:51:51;7.83;;;6.47;;
14381;SDS011;7275;50.328;8.720;2023-02-13T04:54:19;7.50;;;6.23;;
14381;SDS011;7275;50.328;8.720;2023-02-13T04:56:46;8.17;;;6.37;;
14381;SDS011;7275;50.328;8.720;2023-02-13T04:59:15;8.87;;;6.73;;
14381;SDS011;7275;50.328;8.720;2023-02-13T05:01:43;7.97;;;6.10;;
14381;SDS011;7275;50.328;8.720;2023-02-13T05:04:11;9.37;;;6.87;;
14381;SDS011;7275;50.328;8.720;2023-02-13T05:06:41;7.70;;;6.07;;
14381;SDS011;7275;50.328;8.720;2023-02-13T05:09:09;7.77;;;6.23;;
14381;SDS011;7275;50.328;8.720;2023-02-13T05:11:37;8.17;;;6.47;;
14381;SDS011;7275;50.328;8.720;2023-02-13T05:14:05;8.70;;;6.67;;
14381;SDS011;7275;50.328;8.720;2023-02-13T05:16:34;8.27;;;6.87;;
14381;SDS011;7275;50.328;8.720;2023-02-13T05:19:01;9.57;;;7.13;;
14381;SDS011;7275;50.328;8.720;2023-02-13T05:21:29;8.63;;;6.90;;
14381;SDS011;7275;50.328;8.720;2023-02-13T05:24:14;9.07;;;7.20;;
14381;SDS011;7275;50.328;8.720;2023-02-13T05:26:45;7.50;;;6.70;;
14381;SDS011;7275;50.328;8.720;2023-02-13T05:29:13;10.10;;;7.50;;
14381;SDS011;7275;50.328;8.720;2023-02-13T05:31:47;9.70;;;7.20;;
14381;SDS011;7275;50.328;8.720;2023-02-13T05:34:16;9.03;;;7.57;;
14381;SDS011;7275;50.328;8.720;2023-02-13T05:36:44;9.03;;;6.93;;
14381;SDS011;7275;50.328;8.720;2023-02-13T05:39:12;9.57;;;7.20;;
14381;SDS011;7275;50.328;8.720;2023-02-13T05:41:40;10.77;;;7.40;;
14381;SDS011;7275;50.328;8.720;2023-02-13T05:44:08;10.37;;;7.93;;
14381;SDS011;7275;50.328;8.720;2023-02-13T05:46:37;10.20;;;7.60;;
14381;SDS011;7275;50.328;8.720;2023-02-13T05:49:08;9.60;;;7.40;;
14381;SDS011;7275;50.328;8.720;2023-02-13T05:51:36;11.10;;;8.47;;
14381;SDS011;7275;50.328;8.720;2023-02-13T05:54:04;9.77;;;7.57;;
14381;SDS011;7275;50.328;8.720;2023-02-13T05:56:31;9.30;;;7.17;;
14381;SDS011;7275;50.328;8.720;2023-02-13T05:58:59;11.40;;;7.90;;
14381;SDS011;7275;50.328;8.720;2023-02-13T06:01:27;10.07;;;7.90;;
14381;SDS011;7275;50.328;8.720;2023-02-13T06:03:54;9.57;;;7.60;;
14381;SDS011;7275;50.328;8.720;2023-02-13T06:06:26;9.33;;;7.40;;
14381;SDS011;7275;50.328;8.720;2023-02-13T06:08:54;10.67;;;7.50;;
14381;SDS011;7275;50.328;8.720;2023-02-13T06:11:22;9.83;;;7.13;;
14381;SDS011;7275;50.328;8.720;2023-02-13T06:13:49;10.93;;;7.40;;
14381;SDS011;7275;50.328;8.720;2023-02-13T06:16:17;11.13;;;7.20;;
14381;SDS011;7275;50.328;8.720;2023-02-13T06:18:44;9.03;;;6.87;;
14381;SDS011;7275;50.328;8.720;2023-02-13T06:21:12;10.47;;;7.73;;
14381;SDS011;7275;50.328;8.720;2023-02-13T06:23:41;10.03;;;7.43;;
14381;SDS011;7275;50.328;8.720;2023-02-13T06:26:09;10.03;;;7.50;;
14381;SDS011;7275;50.328;8.720;2023-02-13T06:28:37;9.27;;;7.30;;
14381;SDS011;7275;50.328;8.720;2023-02-13T06:31:04;10.13;;;7.70;;
14381;SDS011;7275;50.328;8.720;2023-02-13T06:33:32;9.23;;;7.40;;
14381;SDS011;7275;50.328;8.720;2023-02-13T06:36:00;9.97;;;7.10;;
14381;SDS011;7275;50.328;8.720;2023-02-13T06:38:27;9.03;;;6.93;;
14381;SDS011;7275;50.328;8.720;2023-02-13T06:40:59;9.17;;;7.03;;
14381;SDS011;7275;50.328;8.720;2023-02-13T06:43:27;10.70;;;7.53;;
14381;SDS011;7275;50.328;8.720;2023-02-13T06:45:55;9.23;;;7.00;;
14381;SDS011;7275;50.328;8.720;2023-02-13T06:48:23;9.77;;;7.40;;
14381;SDS011;7275;50.328;8.720;2023-02-13T06:50:51;9.70;;;7.43;;
14381;SDS011;7275;50.328;8.720;2023-02-13T06:53:19;9.73;;;7.40;;
14381;SDS011;7275;50.328;8.720;2023-02-13T06:55:50;9.87;;;7.10;;
14381;SDS011;7275;50.328;8.720;2023-02-13T06:58:20;9.37;;;7.33;;
14381;SDS011;7275;50.328;8.720;2023-02-13T07:00:49;9.73;;;7.10;;
14381;SDS011;7275;50.328;8.720;2023-02-13T07:03:18;9.30;;;7.60;;
14381;SDS011;7275;50.328;8.720;2023-02-13T07:05:46;9.30;;;6.93;;
14381;SDS011;7275;50.328;8.720;2023-02-13T07:08:17;8.53;;;6.80;;
14381;SDS011;7275;50.328;8.720;2023-02-13T07:10:45;10.93;;;6.77;;
14381;SDS011;7275;50.328;8.720;2023-02-13T07:13:12;9.23;;;7.00;;
14381;SDS011;7275;50.328;8.720;2023-02-13T07:15:41;9.67;;;7.23;;
14381;SDS011;7275;50.328;8.720;2023-02-13T07:18:09;9.53;;;7.00;;
14381;SDS011;7275;50.328;8.720;2023-02-13T07:20:36;9.37;;;7.23;;
14381;SDS011;7275;50.328;8.720;2023-02-13T07:23:04;9.40;;;6.40;;
14381;SDS011;7275;50.328;8.720;2023-02-13T07:25:32;8.70;;;6.47;;
14381;SDS011;7275;50.328;8.720;2023-02-13T07:28:00;7.70;;;6.33;;
14381;SDS011;7275;50.328;8.720;2023-02-13T07:30:29;7.77;;;5.70;;
14381;SDS011;7275;50.328;8.720;2023-02-13T07:32:59;7.73;;;5.90;;
14381;SDS011;7275;50.328;8.720;2023-02-13T07:35:27;7.57;;;6.30;;
14381;SDS011;7275;50.328;8.720;2023-02-13T07:37:55;7.80;;;6.57;;
14381;SDS011;7275;50.328;8.720;2023-02-13T07:40:24;8.57;;;6.83;;
14381;SDS011;7275;50.328;8.720;2023-02-13T07:42:52;8.43;;;7.03;;
14381;SDS011;7275;50.328;8.720;2023-02-13T07:45:20;8.80;;;7.17;;
14381;SDS011;7275;50.328;8.720;2023-02-13T07:47:47;7.50;;;6.70;;
14381;SDS011;7275;50.328;8.720;2023-02-13T07:50:16;8.40;;;6.70;;
14381;SDS011;7275;50.328;8.720;2023-02-13T07:52:49;7.93;;;6.33;;
14381;SDS011;7275;50.328;8.720;2023-02-13T07:55:19;7.03;;;6.23;;
14381;SDS011;7275;50.328;8.720;2023-02-13T07:57:47;7.23;;;5.87;;
14381;SDS011;7275;50.328;8.720;2023-02-13T08:00:15;7.70;;;6.40;;
14381;SDS011;7275;50.328;8.720;2023-02-13T08:02:43;7.90;;;6.67;;
14381;SDS011;7275;50.328;8.720;2023-02-13T08:05:12;8.47;;;6.47;;
14381;SDS011;7275;50.328;8.720;2023-02-13T08:07:41;8.27;;;6.63;;
14381;SDS011;7275;50.328;8.720;2023-02-13T08:10:10;7.93;;;6.83;;
14381;SDS011;7275;50.328;8.720;2023-02-13T08:12:57;7.40;;;6.60;;
14381;SDS011;7275;50.328;8.720;2023-02-13T08:15:25;8.37;;;6.90;;
14381;SDS011;7275;50.328;8.720;2023-02-13T08:17:52;7.63;;;6.80;;
14381;SDS011;7275;50.328;8.720;2023-02-13T08:20:20;6.67;;;5.93;;
14381;SDS011;7275;50.328;8.720;2023-02-13T08:22:50;8.27;;;6.93;;
14381;SDS011;7275;50.328;8.720;2023-02-13T08:25:18;7.70;;;6.83;;
14381;SDS011;7275;50.328;8.720;2023-02-13T08:27:46;7.60;;;6.50;;
14381;SDS011;7275;50.328;8.720;2023-02-13T08:30:13;7.73;;;6.77;;
14381;SDS011;7275;50.328;8.720;2023-02-13T08:32:41;7.53;;;6.73;;
14381;SDS011;7275;50.328;8.720;2023-02-13T08:35:19;6.97;;;6.27;;
14381;SDS011;7275;50.328;8.720;2023-02-13T08:37:47;7.50;;;6.70;;
14381;SDS011;7275;50.328;8.720;2023-02-13T08:40:16;7.43;;;6.57;;
14381;SDS011;7275;50.328;8.720;2023-02-13T08:42:44;7.27;;;6.27;;
14381;SDS011;7275;50.328;8.720;2023-02-13T08:45:12;6.93;;;6.20;;
14381;SDS011;7275;50.328;8.720;2023-02-13T08:47:40;6.93;;;6.23;;
14381;SDS011;7275;50.328;8.720;2023-02-13T08:50:07;7.60;;;6.47;;
14381;SDS011;7275;50.328;8.720;2023-02-13T08:52:35;6.77;;;6.07;;
14381;SDS011;7275;50.328;8.720;2023-02-13T08:55:03;7.07;;;6.37;;
14381;SDS011;7275;50.328;8.720;2023-02-13T08:57:33;6.83;;;6.13;;
14381;SDS011;7275;50.328;8.720;2023-02-13T09:00:00;6.47;;;5.83;;
14381;SDS011;7275;50.328;8.720;2023-02-13T09:02:28;6.90;;;6.10;;
14381;SDS011;7275;50.328;8.720;2023-02-13T09:04:56;7.07;;;6.37;;
14381;SDS011;7275;50.328;8.720;2023-02-13T09:07:23;6.87;;;5.83;;
14381;SDS011;7275;50.328;8.720;2023-02-13T09:09:51;7.10;;;6.40;;
14381;SDS011;7275;50.328;8.720;2023-02-13T09:12:19;6.67;;;6.07;;
14381;SDS011;7275;50.328;8.720;2023-02-13T09:14:48;6.60;;;5.90;;
14381;SDS011;7275;50.328;8.720;2023-02-13T09:17:15;6.60;;;6.00;;
14381;SDS011;7275;50.328;8.720;2023-02-13T09:19:44;6.47;;;5.87;;
14381;SDS011;7275;50.328;8.720;2023-02-13T09:22:12;5.80;;;5.30;;
14381;SDS011;7275;50.328;8.720;2023-02-13T09:24:42;5.17;;;4.67;;
14381;SDS011;7275;50.328;8.720;2023-02-13T09:27:09;5.50;;;5.00;;
14381;SDS011;7275;50.328;8.720;2023-02-13T09:29:37;5.47;;;4.97;;
14381;SDS011;7275;50.328;8.720;2023-02-13T09:32:06;5.23;;;4.73;;
14381;SDS011;7275;50.328;8.720;2023-02-13T09:34:34;4.55;;;4.15;;
14381;SDS011;7275;50.328;8.720;2023-02-13T09:37:01;5.25;;;4.78;;
14381;SDS011;7275;50.328;8.720;2023-02-13T09:39:29;4.82;;;4.43;;
14381;SDS011;7275;50.328;8.720;2023-02-13T09:41:56;5.05;;;4.55;;
14381;SDS011;7275;50.328;8.720;2023-02-13T09:44:26;4.88;;;4.47;;
14381;SDS011;7275;50.328;8.720;2023-02-13T09:47:00;4.78;;;4.38;;
14381;SDS011;7275;50.328;8.720;2023-02-13T09:49:34;4.75;;;4.35;;
14381;SDS011;7275;50.328;8.720;2023-02-13T09:52:04;4.32;;;3.92;;
14381;SDS011;7275;50.328;8.720;2023-02-13T09:54:32;4.35;;;3.95;;
14381;SDS011;7275;50.328;8.720;2023-02-13T09:57:01;4.70;;;4.28;;
14381;SDS011;7275;50.328;8.720;2023-02-13T09:59:36;4.82;;;4.43;;
14381;SDS011;7275;50.328;8.720;2023-02-13T10:02:28;3.85;;;3.55;;
14381;SDS011;7275;50.328;8.720;2023-02-13T10:05:16;4.10;;;3.80;;
14381;SDS011;7275;50.328;8.720;2023-02-13T10:07:52;4.18;;;3.83;;
14381;SDS011;7275;50.328;8.720;2023-02-13T10:10:27;4.43;;;4.03;;
14381;SDS011;7275;50.328;8.720;2023-02-13T10:13:04;4.50;;;4.10;;
14381;SDS011;7275;50.328;8.720;2023-02-13T10:15:45;4.25;;;3.92;;
14381;SDS011;7275;50.328;8.720;2023-02-13T10:18:20;4.53;;;4.13;;
14381;SDS011;7275;50.328;8.720;2023-02-13T10:20:51;4.10;;;3.80;;
14381;SDS011;7275;50.328;8.720;2023-02-13T10:23:21;4.60;;;4.20;;
14381;SDS011;7275;50.328;8.720;2023-02-13T10:25:54;4.93;;;4.53;;
14381;SDS011;7275;50.328;8.720;2023-02-13T10:28:30;4.10;;;3.80;;
14381;SDS011;7275;50.328;8.720;2023-02-13T10:31:03;4.55;;;4.20;;
14381;SDS011;7275;50.328;8.720;2023-02-13T10:33:34;4.15;;;3.85;;
14381;SDS011;7275;50.328;8.720;2023-02-13T10:36:15;4.22;;;3.88;;
14381;SDS011;7275;50.328;8.720;2023-02-13T10:38:47;4.25;;;3.88;;
14381;SDS011;7275;50.328;8.720;2023-02-13T10:41:23;4.05;;;3.65;;
14381;SDS011;7275;50.328;8.720;2023-02-13T10:46:50;4.18;;;3.85;;
14381;SDS011;7275;50.328;8.720;2023-02-13T10:49:29;4.35;;;3.95;;
14381;SDS011;7275;50.328;8.720;2023-02-13T10:52:10;4.10;;;3.78;;
14381;SDS011;7275;50.328;8.720;2023-02-13T10:54:58;3.88;;;3.58;;
14381;SDS011;7275;50.328;8.720;2023-02-13T10:57:40;4.30;;;3.97;;
14381;SDS011;7275;50.328;8.720;2023-02-13T11:00:24;4.15;;;3.78;;
14381;SDS011;7275;50.328;8.720;2023-02-13T11:02:57;3.65;;;3.35;;
14381;SDS011;7275;50.328;8.720;2023-02-13T11:05:29;4.30;;;3.90;;
14381;SDS011;7275;50.328;8.720;2023-02-13T11:07:59;3.88;;;3.58;;
14381;SDS011;7275;50.328;8.720;2023-02-13T11:10:28;3.88;;;3.58;;
14381;SDS011;7275;50.328;8.720;2023-02-13T11:12:56;3.60;;;3.30;;
14381;SDS011;7275;50.328;8.720;2023-02-13T11:15:40;4.28;;;3.88;;
14381;SDS011;7275;50.328;8.720;2023-02-13T11:18:11;3.80;;;3.50;;
14381;SDS011;7275;50.328;8.720;2023-02-13T11:20:44;3.90;;;3.60;;
14381;SDS011;7275;50.328;8.720;2023-02-13T11:26:03;4.10;;;3.72;;
14381;SDS011;7275;50.328;8.720;2023-02-13T11:28:35;3.83;;;3.53;;
14381;SDS011;7275;50.328;8.720;2023-02-13T11:31:09;4.10;;;3.78;;
14381;SDS011;7275;50.328;8.720;2023-02-13T11:33:40;4.15;;;3.85;;
14381;SDS011;7275;50.328;8.720;2023-02-13T11:36:08;3.95;;;3.65;;
14381;SDS011;7275;50.328;8.720;2023-02-13T11:38:42;4.00;;;3.70;;
14381;SDS011;7275;50.328;8.720;2023-02-13T11:41:10;3.83;;;3.53;;
14381;SDS011;7275;50.328;8.720;2023-02-13T11:43:43;3.50;;;3.20;;
14381;SDS011;7275;50.328;8.720;2023-02-13T11:46:16;3.78;;;3.47;;
14381;SDS011;7275;50.328;8.720;2023-02-13T11:48:56;3.75;;;3.45;;
14381;SDS011;7275;50.328;8.720;2023-02-13T11:51:38;4.07;;;3.78;;
14381;SDS011;7275;50.328;8.720;2023-02-13T11:54:22;3.15;;;2.88;;
14381;SDS011;7275;50.328;8.720;2023-02-13T11:56:54;4.10;;;3.70;;
14381;SDS011;7275;50.328;8.720;2023-02-13T11:59:32;3.72;;;3.42;;
14381;SDS011;7275;50.328;8.720;2023-02-13T12:02:14;3.72;;;3.42;;
14381;SDS011;7275;50.328;8.720;2023-02-13T12:04:44;3.50;;;3.20;;
14381;SDS011;7275;50.328;8.720;2023-02-13T12:07:18;3.80;;;3.50;;
14381;SDS011;7275;50.328;8.720;2023-02-13T12:09:52;3.75;;;3.45;;
14381;SDS011;7275;50.328;8.720;2023-02-13T12:12:24;4.07;;;3.75;;
14381;SDS011;7275;50.328;8.720;2023-02-13T12:14:55;3.70;;;3.40;;
14381;SDS011;7275;50.328;8.720;2023-02-13T12:17:25;3.80;;;3.35;;
14381;SDS011;7275;50.328;8.720;2023-02-13T12:19:57;3.90;;;3.42;;
14381;SDS011;7275;50.328;8.720;2023-02-13T12:22:30;4.05;;;3.65;;
14381;SDS011;7275;50.328;8.720;2023-02-13T12:25:10;3.97;;;3.67;;
14381;SDS011;7275;50.328;8.720;2023-02-13T12:27:50;3.67;;;3.38;;
14381;SDS011;7275;50.328;8.720;2023-02-13T12:30:35;3.75;;;3.45;;
14381;SDS011;7275;50.328;8.720;2023-02-13T12:33:15;3.47;;;3.17;;
14381;SDS011;7275;50.328;8.720;2023-02-13T12:35:53;3.67;;;3.38;;
14381;SDS011;7275;50.328;8.720;2023-02-13T12:38:31;3.60;;;3.30;;
14381;SDS011;7275;50.328;8.720;2023-02-13T12:41:17;3.63;;;3.33;;
14381;SDS011;7275;50.328;8.720;2023-02-13T12:46:50;3.63;;;3.33;;
14381;SDS011;7275;50.328;8.720;2023-02-13T12:49:28;3.53;;;3.22;;
14381;SDS011;7275;50.328;8.720;2023-02-13T12:52:13;4.05;;;3.50;;
14381;SDS011;7275;50.328;8.720;2023-02-13T12:54:53;3.60;;;3.30;;
14381;SDS011;7275;50.328;8.720;2023-02-13T12:57:37;3.25;;;3.03;;
14381;SDS011;7275;50.328;8.720;2023-02-13T13:00:21;3.63;;;3.25;;
14381;SDS011;7275;50.328;8.720;2023-02-13T13:03:04;3.30;;;3.00;;
14381;SDS011;7275;50.328;8.720;2023-02-13T13:05:47;3.28;;;2.97;;
14381;SDS011;7275;50.328;8.720;2023-02-13T13:08:41;2.95;;;2.75;;
14381;SDS011;7275;50.328;8.720;2023-02-13T13:11:25;3.13;;;2.92;;
14381;SDS011;7275;50.328;8.720;2023-02-13T13:14:10;3.17;;;2.88;;
14381;SDS011;7275;50.328;8.720;2023-02-13T13:16:45;3.10;;;2.88;;
14381;SDS011;7275;50.328;8.720;2023-02-13T13:19:23;3.63;;;3.33;;
14381;SDS011;7275;50.328;8.720;2023-02-13T13:21:59;3.42;;;3.15;;
14381;SDS011;7275;50.328;8.720;2023-02-13T13:24:33;3.33;;;3.05;;
14381;SDS011;7275;50.328;8.720;2023-02-13T13:27:10;3.30;;;3.00;;
14381;SDS011;7275;50.328;8.720;2023-02-13T13:29:47;2.95;;;2.75;;
14381;SDS011;7275;50.328;8.720;2023-02-13T13:32:19;2.95;;;2.67;;
14381;SDS011;7275;50.328;8.720;2023-02-13T13:34:47;2.95;;;2.75;;
14381;SDS011;7275;50.328;8.720;2023-02-13T13:37:18;3.15;;;2.85;;
14381;SDS011;7275;50.328;8.720;2023-02-13T13:39:54;3.08;;;2.88;;
14381;SDS011;7275;50.328;8.720;2023-02-13T13:42:29;2.97;;;2.67;;
14381;SDS011;7275;50.328;8.720;2023-02-13T13:45:10;3.35;;;3.05;;
14381;SDS011;7275;50.328;8.720;2023-02-13T13:50:49;2.92;;;2.65;;
14381;SDS011;7275;50.328;8.720;2023-02-13T13:53:18;4.30;;;3.10;;
14381;SDS011;7275;50.328;8.720;2023-02-13T13:56:01;3.10;;;2.90;;
14381;SDS011;7275;50.328;8.720;2023-02-13T13:58:35;3.03;;;2.83;;
14381;SDS011;7275;50.328;8.720;2023-02-13T14:01:15;3.00;;;2.75;;
14381;SDS011;7275;50.328;8.720;2023-02-13T14:04:02;3.13;;;2.83;;
14381;SDS011;7275;50.328;8.720;2023-02-13T14:09:42;2.67;;;2.47;;
14381;SDS011;7275;50.328;8.720;2023-02-13T14:18:19;2.90;;;2.63;;
14381;SDS011;7275;50.328;8.720;2023-02-13T14:20:49;2.90;;;2.60;;
14381;SDS011;7275;50.328;8.720;2023-02-13T14:26:22;2.10;;;1.90;;
14381;SDS011;7275;50.328;8.720;2023-02-13T14:28:58;1.92;;;1.83;;
14381;SDS011;7275;50.328;8.720;2023-02-13T14:31:53;2.63;;;1.83;;
14381;SDS011;7275;50.328;8.720;2023-02-13T14:34:33;2.05;;;1.85;;
14381;SDS011;7275;50.328;8.720;2023-02-13T14:37:12;3.13;;;2.30;;
14381;SDS011;7275;50.328;8.720;2023-02-13T14:42:37;2.58;;;2.10;;
14381;SDS011;7275;50.328;8.720;2023-02-13T14:45:10;2.30;;;2.10;;
14381;SDS011;7275;50.328;8.720;2023-02-13T14:47:42;2.40;;;2.20;;
14381;SDS011;7275;50.328;8.720;2023-02-13T14:50:18;3.15;;;2.38;;
14381;SDS011;7275;50.328;8.720;2023-02-13T14:52:49;2.40;;;2.20;;
14381;SDS011;7275;50.328;8.720;2023-02-13T14:55:19;2.20;;;2.00;;
14381;SDS011;7275;50.328;8.720;2023-02-13T14:57:58;2.50;;;2.30;;
14381;SDS011;7275;50.328;8.720;2023-02-13T15:00:33;2.33;;;2.13;;
14381;SDS011;7275;50.328;8.720;2023-02-13T15:03:07;2.47;;;2.28;;
14381;SDS011;7275;50.328;8.720;2023-02-13T15:05:48;2.42;;;2.20;;
14381;SDS011;7275;50.328;8.720;2023-02-13T15:08:18;2.50;;;2.30;;
14381;SDS011;7275;50.328;8.720;2023-02-13T15:10:49;1.98;;;1.88;;
14381;SDS011;7275;50.328;8.720;2023-02-13T15:13:19;2.40;;;2.10;;
14381;SDS011;7275;50.328;8.720;2023-02-13T15:15:52;3.78;;;2.35;;
14381;SDS011;7275;50.328;8.720;2023-02-13T15:18:23;3.45;;;2.33;;
14381;SDS011;7275;50.328;8.720;2023-02-13T15:20:55;2.50;;;2.30;;
14381;SDS011;7275;50.328;8.720;2023-02-13T15:23:27;2.55;;;2.35;;
14381;SDS011;7275;50.328;8.720;2023-02-13T15:25:57;2.67;;;2.47;;
14381;SDS011;7275;50.328;8.720;2023-02-13T15:28:26;2.40;;;2.10;;
14381;SDS011;7275;50.328;8.720;2023-02-13T15:30:57;3.95;;;2.30;;
14381;SDS011;7275;50.328;8.720;2023-02-13T15:33:28;2.50;;;2.30;;
14381;SDS011;7275;50.328;8.720;2023-02-13T15:36:00;2.60;;;2.38;;
14381;SDS011;7275;50.328;8.720;2023-02-13T15:38:30;2.75;;;2.30;;
14381;SDS011;7275;50.328;8.720;2023-02-13T15:40:59;2.60;;;2.38;;
14381;SDS011;7275;50.328;8.720;2023-02-13T15:43:31;2.72;;;2.50;;
14381;SDS011;7275;50.328;8.720;2023-02-13T15:46:02;2.70;;;2.50;;
14381;SDS011;7275;50.328;8.720;2023-02-13T15:48:32;2.90;;;2.70;;
14381;SDS011;7275;50.328;8.720;2023-02-13T15:51:02;3.67;;;2.63;;
14381;SDS011;7275;50.328;8.720;2023-02-13T15:53:30;2.65;;;2.45;;
14381;SDS011;7275;50.328;8.720;2023-02-13T15:55:58;3.05;;;2.78;;
14381;SDS011;7275;50.328;8.720;2023-02-13T15:58:28;2.78;;;2.40;;
14381;SDS011;7275;50.328;8.720;2023-02-13T16:01:00;2.67;;;2.40;;
14381;SDS011;7275;50.328;8.720;2023-02-13T16:03:31;2.60;;;2.30;;
14381;SDS011;7275;50.328;8.720;2023-02-13T16:06:00;2.60;;;2.40;;
14381;SDS011;7275;50.328;8.720;2023-02-13T16:08:31;3.05;;;2.70;;